Custer, Michigan
Current Conditions -  °F | °C
As of 6:55 AM on Tuesday 21 Oct 2014 (Local Time) from KLDM Reporting Station
Overcast Overcast  
Wind Chill: 42°   Ceiling: 1900
Heat Index: 47°   Visibility: 10mi
Dew Point: 44°   Wind: 9mph
Humidity: 92%   Direction: 10°N
Pressure: 30.05"   Gusts: NA
Location:  43.95°N, 86.22°W
Report Text: KLDM 211055Z AUTO 01008KT 10SM OVC019 08/07 A3005 RMK AO2 T00820069
Loading
Personal Weather Stations






























Interactive Weather Map
Tropical Storm Tracking
New forecast layout! Learn more

10-Day Weather Forecast

Advertisements
Track Severe Weather on mobile